Time;durP1;ratioP1;P1;durP2;ratioP2;P2;SDS_P1;SDS_P2;PMS_P1;PMS_P2;Temp;Humidity;BMP_temperature;BMP_pressure;BME280_temperature;BME280_humidity;BME280_pressure;Samples;Min_cycle;Max_cycle;Signal;HPM_P1;HPM_P2
2022/04/24 00:00:48;;;;;;;65.80;33.10;;;;;;;4.90;65.69;99391.30;106054;1273;22883;-58
2022/04/24 00:03:20;;;;;;;63.60;30.20;;;;;;;4.85;65.81;99391.95;106091;1273;25356;-58
2022/04/24 00:05:52;;;;;;;61.70;28.40;;;;;;;4.79;66.03;99390.94;105920;1274;25518;-58
2022/04/24 00:08:23;;;;;;;74.60;32.80;;;;;;;4.75;66.08;99387.30;106026;1274;22555;-56
2022/04/24 00:10:55;;;;;;;70.10;33.20;;;;;;;4.71;66.07;99386.23;106085;1273;25567;-58
2022/04/24 00:13:27;;;;;;;79.20;33.90;;;;;;;4.66;66.15;99383.17;106009;1273;25850;-57
2022/04/24 00:15:58;;;;;;;75.20;35.60;;;;;;;4.62;66.24;99378.79;106103;1273;26516;-57
2022/04/24 00:18:30;;;;;;;81.00;34.10;;;;;;;4.58;66.33;99375.65;106047;1273;22975;-58
2022/04/24 00:21:01;;;;;;;67.10;32.80;;;;;;;4.55;66.32;99375.77;106099;1273;22534;-57
2022/04/24 00:23:33;;;;;;;59.30;28.60;;;;;;;4.57;66.32;99374.98;106192;1273;22562;-57
2022/04/24 00:26:04;;;;;;;49.70;26.40;;;;;;;4.57;66.51;99374.96;106122;1273;24290;-58
2022/04/24 00:28:36;;;;;;;54.00;25.90;;;;;;;4.56;66.51;99369.81;106029;1273;22635;-56
2022/04/24 00:31:07;;;;;;;50.30;25.40;;;;;;;4.58;66.58;99369.17;105973;1273;26578;-58
2022/04/24 00:33:38;;;;;;;51.40;25.60;;;;;;;4.57;66.54;99370.85;106098;1273;24411;-57
2022/04/24 00:36:10;;;;;;;52.70;28.20;;;;;;;4.55;66.60;99362.00;106127;1273;22567;-55
2022/04/24 00:38:41;;;;;;;60.30;29.10;;;;;;;4.54;66.76;99362.86;105825;1274;22544;-57
2022/04/24 00:41:15;;;;;;;60.70;29.10;;;;;;;4.51;67.37;99362.64;106203;1273;22528;-58
2022/04/24 00:43:54;;;;;;;59.20;29.40;;;;;;;4.51;67.27;99365.26;106072;1273;26579;-57
2022/04/24 00:46:40;;;;;;;53.70;28.40;;;;;;;4.53;67.61;99368.77;106001;1273;22478;-57
2022/04/24 00:49:13;;;;;;;51.10;27.90;;;;;;;4.54;67.96;99366.48;106110;1273;23201;-58
2022/04/24 00:51:45;;;;;;;51.90;27.10;;;;;;;4.55;67.96;99362.48;105955;1273;23199;-58
2022/04/24 00:54:17;;;;;;;52.20;26.50;;;;;;;4.55;68.02;99363.20;106033;1273;25408;-59
2022/04/24 00:56:50;;;;;;;57.70;27.40;;;;;;;4.53;68.16;99358.23;105917;1273;22586;-58
2022/04/24 00:59:22;;;;;;;55.50;27.50;;;;;;;4.52;67.90;99353.10;105741;1274;22545;-58
2022/04/24 01:01:53;;;;;;;55.80;28.50;;;;;;;4.51;68.24;99353.19;105861;1273;22570;-59
2022/04/24 01:04:25;;;;;;;54.30;28.10;;;;;;;4.52;68.34;99352.13;105955;1273;22563;-54
2022/04/24 01:06:56;;;;;;;65.60;31.70;;;;;;;4.54;68.31;99350.25;105986;1273;24072;-56
2022/04/24 01:09:32;;;;;;;68.80;33.90;;;;;;;4.55;68.18;99347.67;105932;1273;23270;-57
2022/04/24 01:12:04;;;;;;;76.90;34.70;;;;;;;4.55;68.21;99350.00;105799;1273;22566;-57
2022/04/24 01:14:36;;;;;;;79.20;35.80;;;;;;;4.56;68.08;99348.70;105912;1273;25292;-58
2022/04/24 01:17:09;;;;;;;73.50;36.60;;;;;;;4.57;68.12;99346.16;105692;1273;22554;-58
2022/04/24 01:19:41;;;;;;;74.60;36.90;;;;;;;4.56;68.26;99342.14;105900;1273;22560;-58
2022/04/24 01:22:13;;;;;;;74.80;36.20;;;;;;;4.57;68.33;99344.55;105917;1273;25338;-57
2022/04/24 01:24:44;;;;;;;82.10;39.00;;;;;;;4.54;68.39;99349.02;105897;1273;22542;-57
2022/04/24 01:27:16;;;;;;;86.50;37.70;;;;;;;4.53;68.40;99344.05;105808;1273;24025;-58
2022/04/24 01:29:47;;;;;;;83.40;38.40;;;;;;;4.49;68.37;99341.44;105870;1273;22552;-56
2022/04/24 01:32:19;;;;;;;76.40;38.40;;;;;;;4.46;68.46;99339.12;105899;1271;24250;-56
2022/04/24 01:34:51;;;;;;;76.80;36.40;;;;;;;4.41;68.52;99334.70;105746;1273;25461;-56
2022/04/24 01:37:22;;;;;;;72.00;34.90;;;;;;;4.35;68.69;99335.39;105910;1273;24120;-56
2022/04/24 01:39:57;;;;;;;77.10;35.40;;;;;;;4.30;68.68;99332.28;105942;1273;24473;-57
2022/04/24 01:42:29;;;;;;;69.00;33.50;;;;;;;4.28;68.66;99331.60;105815;1273;22547;-57
2022/04/24 01:45:02;;;;;;;67.50;34.90;;;;;;;4.24;68.63;99329.30;105748;1273;22721;-59
2022/04/24 01:47:33;;;;;;;63.90;31.30;;;;;;;4.20;68.85;99332.64;105736;1273;22582;-58
2022/04/24 01:50:05;;;;;;;62.00;30.60;;;;;;;4.14;68.91;99329.25;105733;1273;22716;-58
2022/04/24 01:52:37;;;;;;;57.00;28.80;;;;;;;4.10;69.01;99325.08;105808;1273;22622;-57
2022/04/24 01:55:12;;;;;;;56.00;28.90;;;;;;;4.08;68.97;99322.48;105626;1274;23220;-58
2022/04/24 01:57:44;;;;;;;56.10;28.50;;;;;;;4.03;69.44;99318.27;105727;1274;24283;-57
2022/04/24 02:00:18;;;;;;;59.10;29.70;;;;;;;4.00;69.34;99317.29;105852;1273;22560;-57
2022/04/24 02:02:49;;;;;;;58.20;28.30;;;;;;;3.94;69.27;99315.65;105854;1273;24215;-58
2022/04/24 02:05:22;;;;;;;53.70;28.00;;;;;;;3.88;69.28;99313.05;105869;1273;24237;-56
2022/04/24 02:07:54;;;;;;;52.00;26.30;;;;;;;3.84;69.28;99312.33;105916;1273;22552;-57
2022/04/24 02:10:26;;;;;;;50.90;26.70;;;;;;;3.80;69.18;99309.41;105736;1273;22535;-56
2022/04/24 02:12:57;;;;;;;56.30;26.90;;;;;;;3.76;69.36;99305.41;105916;1273;22531;-58
2022/04/24 02:15:29;;;;;;;54.50;26.60;;;;;;;3.71;69.31;99301.53;106036;1273;22559;-57
2022/04/24 02:18:01;;;;;;;48.70;25.50;;;;;;;3.67;69.31;99301.51;105807;1273;24489;-55
2022/04/24 02:20:33;;;;;;;51.80;26.00;;;;;;;3.64;69.58;99297.66;105730;1274;22660;-57
2022/04/24 02:23:04;;;;;;;52.80;26.20;;;;;;;3.65;70.42;99297.02;105797;1273;25979;-59
2022/04/24 02:25:36;;;;;;;52.70;27.10;;;;;;;3.67;70.42;99295.27;105892;1273;25653;-57
2022/04/24 02:28:08;;;;;;;48.90;25.10;;;;;;;3.69;70.40;99294.57;106010;1273;25889;-58
2022/04/24 02:30:40;;;;;;;46.70;25.30;;;;;;;3.71;70.61;99287.08;105941;1273;22483;-58
2022/04/24 02:33:12;;;;;;;54.10;25.80;;;;;;;3.72;70.88;99286.10;106117;1273;25406;-57
2022/04/24 02:35:44;;;;;;;48.50;24.70;;;;;;;3.72;71.05;99286.08;105791;1273;22699;-57
2022/04/24 02:38:15;;;;;;;46.10;24.20;;;;;;;3.71;70.70;99285.24;105867;1273;24281;-57
2022/04/24 02:40:47;;;;;;;47.30;25.20;;;;;;;3.68;71.10;99284.92;105793;1273;24247;-56
2022/04/24 02:43:18;;;;;;;47.60;24.40;;;;;;;3.67;71.02;99282.11;105741;1273;22563;-57
2022/04/24 02:45:50;;;;;;;46.90;22.80;;;;;;;3.68;71.02;99277.27;105855;1273;24251;-58
2022/04/24 02:48:22;;;;;;;48.30;24.60;;;;;;;3.68;71.03;99273.85;105911;1273;22694;-57
2022/04/24 02:50:54;;;;;;;44.70;22.60;;;;;;;3.70;71.14;99272.04;105973;1274;22554;-56
2022/04/24 02:53:25;;;;;;;50.90;25.70;;;;;;;3.70;71.87;99268.12;105753;1273;22566;-57
2022/04/24 02:55:56;;;;;;;49.60;24.80;;;;;;;3.70;71.80;99266.06;105740;1273;25324;-57
2022/04/24 02:58:30;;;;;;;49.00;24.20;;;;;;;3.71;71.91;99257.52;105689;1273;22601;-56
2022/04/24 03:01:02;;;;;;;46.50;23.20;;;;;;;3.72;71.91;99255.00;105807;1273;22551;-56
2022/04/24 03:03:33;;;;;;;46.00;22.90;;;;;;;3.74;71.89;99253.52;105879;1273;22564;-56
2022/04/24 03:06:06;;;;;;;49.40;22.80;;;;;;;3.74;71.92;99250.92;105810;1273;22532;-57
2022/04/24 03:08:40;;;;;;;45.20;23.50;;;;;;;3.75;72.02;99253.80;105745;1273;22598;-57
2022/04/24 03:11:11;;;;;;;45.30;23.30;;;;;;;3.77;72.05;99252.92;106086;1273;22554;-57
2022/04/24 03:13:44;;;;;;;48.50;24.30;;;;;;;3.77;71.94;99249.73;105790;1273;24651;-56
2022/04/24 03:16:15;;;;;;;43.40;22.20;;;;;;;3.78;72.04;99251.98;105580;1273;25396;-58
2022/04/24 03:18:46;;;;;;;44.00;22.60;;;;;;;3.80;72.08;99248.11;105655;1273;22554;-56
2022/04/24 03:21:18;;;;;;;47.00;24.50;;;;;;;3.82;72.18;99248.30;105802;1273;22537;-58
2022/04/24 03:23:50;;;;;;;47.80;24.90;;;;;;;3.82;72.28;99246.52;105665;1273;22556;-57
2022/04/24 03:26:21;;;;;;;46.30;22.60;;;;;;;3.81;72.31;99242.31;105684;1273;22564;-58
2022/04/24 03:28:53;;;;;;;44.60;22.80;;;;;;;3.83;72.43;99238.39;105721;1273;23088;-57
2022/04/24 03:31:25;;;;;;;44.40;22.20;;;;;;;3.84;72.67;99236.04;105587;1273;24286;-56
2022/04/24 03:33:56;;;;;;;45.30;21.90;;;;;;;3.88;72.68;99236.99;105685;1273;25255;-56
2022/04/24 03:36:28;;;;;;;45.30;23.10;;;;;;;3.91;72.51;99236.64;105917;1273;22563;-57
2022/04/24 03:38:59;;;;;;;47.60;23.20;;;;;;;3.93;72.61;99237.28;105848;1273;22547;-56
2022/04/24 03:41:30;;;;;;;43.40;22.50;;;;;;;3.94;72.77;99233.91;105687;1273;22535;-56
2022/04/24 03:44:01;;;;;;;47.00;23.10;;;;;;;3.94;72.69;99230.80;105702;1273;24186;-56
2022/04/24 03:46:33;;;;;;;45.40;22.90;;;;;;;3.95;72.66;99232.23;105628;1273;22657;-57
2022/04/24 03:49:04;;;;;;;46.80;22.80;;;;;;;3.93;72.55;99231.82;105702;1273;25264;-56
2022/04/24 03:51:36;;;;;;;48.10;22.60;;;;;;;3.90;72.40;99231.61;105805;1273;22547;-56
2022/04/24 03:54:07;;;;;;;46.80;22.40;;;;;;;3.90;72.43;99236.70;105831;1273;22557;-58
2022/04/24 03:56:39;;;;;;;44.10;22.50;;;;;;;3.88;72.40;99235.11;105806;1273;25315;-57
2022/04/24 03:59:11;;;;;;;45.00;22.70;;;;;;;3.86;72.37;99234.60;105819;1273;23078;-54
2022/04/24 04:01:43;;;;;;;44.00;21.10;;;;;;;3.84;72.40;99232.48;105880;1273;22545;-56
2022/04/24 04:04:14;;;;;;;41.90;20.30;;;;;;;3.85;72.31;99227.66;105836;1273;24392;-58
2022/04/24 04:06:45;;;;;;;41.10;20.90;;;;;;;3.86;72.71;99226.41;105868;1273;25263;-57
2022/04/24 04:09:17;;;;;;;43.60;21.40;;;;;;;3.86;73.05;99229.73;105695;1273;24775;-57
2022/04/24 04:11:48;;;;;;;39.80;20.10;;;;;;;3.89;73.22;99230.65;105682;1273;24349;-57
2022/04/24 04:14:21;;;;;;;44.60;21.90;;;;;;;3.93;73.61;99234.95;105910;1273;22863;-56
2022/04/24 04:16:53;;;;;;;43.50;20.90;;;;;;;3.96;73.34;99236.40;105803;1273;24260;-57
2022/04/24 04:19:25;;;;;;;42.40;20.50;;;;;;;3.98;73.32;99238.05;105894;1273;23068;-57
2022/04/24 04:21:56;;;;;;;41.20;22.00;;;;;;;3.99;73.33;99247.27;106208;1273;24401;-56
2022/04/24 04:24:27;;;;;;;41.40;22.00;;;;;;;4.00;73.57;99249.10;105949;1273;24274;-57
2022/04/24 04:26:59;;;;;;;44.30;22.70;;;;;;;4.01;73.54;99248.33;105882;1273;22535;-56
2022/04/24 04:29:31;;;;;;;43.20;20.90;;;;;;;4.02;73.57;99252.39;105961;1273;22761;-56
2022/04/24 04:32:03;;;;;;;42.30;21.90;;;;;;;4.04;73.53;99249.48;105915;1273;26714;-56
2022/04/24 04:34:35;;;;;;;41.60;21.20;;;;;;;4.08;73.35;99250.19;105910;1273;22553;-58
2022/04/24 04:37:07;;;;;;;45.70;21.00;;;;;;;4.13;73.58;99258.60;105826;1273;22569;-56
2022/04/24 04:39:38;;;;;;;42.30;21.10;;;;;;;4.18;73.71;99257.67;105902;1273;24298;-54
2022/04/24 04:42:10;;;;;;;40.40;20.50;;;;;;;4.23;73.70;99259.04;105868;1273;25260;-58
2022/04/24 04:44:41;;;;;;;44.50;22.00;;;;;;;4.28;73.96;99255.83;106012;1273;22560;-57
2022/04/24 04:47:13;;;;;;;40.50;21.60;;;;;;;4.34;74.15;99254.77;106212;1273;22579;-59
2022/04/24 04:49:45;;;;;;;41.70;20.90;;;;;;;4.41;74.05;99255.56;106008;1273;22585;-57
2022/04/24 04:52:16;;;;;;;42.70;21.10;;;;;;;4.47;74.26;99256.46;105888;1273;24768;-57
2022/04/24 04:54:48;;;;;;;43.20;21.10;;;;;;;4.54;74.17;99259.15;106074;1273;22541;-57
2022/04/24 04:57:19;;;;;;;42.50;19.90;;;;;;;4.61;74.39;99265.27;105908;1273;22653;-56
2022/04/24 04:59:51;;;;;;;39.90;19.90;;;;;;;4.67;74.35;99269.16;106083;1273;25699;-56
2022/04/24 05:02:23;;;;;;;41.10;20.80;;;;;;;4.74;74.36;99269.63;106004;1273;24276;-58
2022/04/24 05:04:54;;;;;;;44.60;22.40;;;;;;;4.82;74.52;99266.59;105934;1273;26169;-57
2022/04/24 05:07:28;;;;;;;40.00;20.20;;;;;;;4.91;74.57;99266.88;106014;1273;22577;-56
2022/04/24 05:10:03;;;;;;;39.20;18.60;;;;;;;5.03;74.67;99263.14;105892;1273;22560;-56
2022/04/24 05:12:34;;;;;;;40.30;20.30;;;;;;;5.13;74.62;99262.00;106238;1273;22545;-55
2022/04/24 05:15:08;;;;;;;39.00;18.00;;;;;;;5.25;74.59;99257.60;105861;1273;22556;-57
2022/04/24 05:17:44;;;;;;;36.40;18.90;;;;;;;5.36;74.49;99259.37;105913;1273;22553;-54
2022/04/24 05:20:16;;;;;;;41.20;19.90;;;;;;;5.46;74.56;99260.36;106049;1273;24337;-58
2022/04/24 05:22:48;;;;;;;33.30;17.20;;;;;;;5.55;74.41;99261.61;106046;1273;22622;-56
2022/04/24 05:25:19;;;;;;;46.90;20.90;;;;;;;5.66;74.42;99259.73;105674;1273;22597;-56
2022/04/24 05:27:51;;;;;;;37.90;20.80;;;;;;;5.77;74.59;99262.05;105836;1274;22652;-57
2022/04/24 05:30:24;;;;;;;37.80;18.30;;;;;;;5.87;74.62;99262.68;105848;1273;25568;-57
2022/04/24 05:32:56;;;;;;;39.70;19.10;;;;;;;6.00;74.64;99255.86;106244;1273;22614;-56
2022/04/24 05:35:27;;;;;;;37.40;19.80;;;;;;;6.11;74.55;99250.55;105918;1273;22580;-57
2022/04/24 05:38:00;;;;;;;42.30;18.80;;;;;;;6.22;74.55;99246.81;105961;1273;25520;-57
2022/04/24 05:40:31;;;;;;;40.10;19.40;;;;;;;6.36;74.48;99245.38;105848;1273;23075;-56
2022/04/24 05:43:02;;;;;;;35.00;18.30;;;;;;;6.50;74.43;99246.89;105879;1273;24237;-56
2022/04/24 05:45:36;;;;;;;38.80;18.30;;;;;;;6.62;74.25;99247.59;105969;1273;23216;-57
2022/04/24 05:48:09;;;;;;;35.20;16.80;;;;;;;6.75;74.10;99248.88;105949;1273;22644;-54
2022/04/24 05:50:40;;;;;;;38.70;17.60;;;;;;;6.89;73.87;99254.23;105905;1273;25338;-55
2022/04/24 05:53:12;;;;;;;37.40;17.00;;;;;;;7.02;73.76;99250.02;106082;1273;24357;-53
2022/04/24 05:55:43;;;;;;;37.40;17.20;;;;;;;7.14;73.69;99248.85;105894;1273;24427;-54
2022/04/24 05:58:15;;;;;;;41.80;19.50;;;;;;;7.25;73.38;99248.38;105959;1274;24125;-56
2022/04/24 06:00:47;;;;;;;37.40;17.10;;;;;;;7.37;73.49;99247.16;105985;1273;23029;-57
2022/04/24 06:03:18;;;;;;;33.50;15.20;;;;;;;7.48;73.27;99242.04;106022;1274;22562;-56
2022/04/24 06:05:54;;;;;;;35.50;16.60;;;;;;;7.60;73.03;99242.05;105957;1274;25387;-57
2022/04/24 06:08:26;;;;;;;32.30;13.80;;;;;;;7.73;72.83;99238.10;106077;1273;25457;-57
2022/04/24 06:11:04;;;;;;;30.00;12.90;;;;;;;7.83;72.51;99232.48;105884;1273;22567;-56
2022/04/24 06:13:36;;;;;;;28.40;12.80;;;;;;;7.94;72.28;99228.64;105996;1273;23147;-56
2022/04/24 06:16:08;;;;;;;31.20;13.80;;;;;;;8.07;72.28;99228.30;105929;1273;22556;-57
2022/04/24 06:18:40;;;;;;;30.80;13.10;;;;;;;8.20;72.09;99230.89;106006;1273;22776;-56
2022/04/24 06:21:11;;;;;;;29.10;12.90;;;;;;;8.32;71.83;99232.63;106030;1274;22668;-56
2022/04/24 06:23:43;;;;;;;28.60;11.70;;;;;;;8.42;71.44;99229.81;105999;1273;22727;-57
2022/04/24 06:26:16;;;;;;;25.20;11.00;;;;;;;8.51;71.08;99221.93;105957;1273;22535;-57
2022/04/24 06:28:49;;;;;;;28.20;11.60;;;;;;;8.62;71.37;99221.09;105922;1274;24095;-56
2022/04/24 06:31:21;;;;;;;25.30;11.60;;;;;;;8.73;70.84;99220.29;106233;1274;25266;-57
2022/04/24 06:33:53;;;;;;;25.60;10.00;;;;;;;8.81;70.39;99220.41;106431;1274;22560;-56
2022/04/24 06:36:25;;;;;;;23.30;9.40;;;;;;;8.91;70.21;99215.85;106022;1274;24714;-57
2022/04/24 06:38:57;;;;;;;25.10;11.30;;;;;;;9.00;70.21;99213.45;106100;1273;22559;-57
2022/04/24 06:41:29;;;;;;;22.50;9.50;;;;;;;9.08;69.91;99210.08;105992;1273;26525;-55
2022/04/24 06:44:02;;;;;;;22.40;8.40;;;;;;;9.16;69.50;99203.05;106156;1273;22925;-55
2022/04/24 06:46:35;;;;;;;21.60;9.00;;;;;;;9.22;69.42;99195.41;106173;1273;22651;-55
2022/04/24 06:49:06;;;;;;;24.00;9.90;;;;;;;9.26;69.21;99186.58;106164;1272;22576;-56
2022/04/24 06:51:38;;;;;;;22.70;10.00;;;;;;;9.32;69.35;99179.98;106101;1273;25440;-56
2022/04/24 06:54:10;;;;;;;19.80;7.70;;;;;;;9.38;68.92;99176.84;106074;1273;22596;-57
2022/04/24 06:56:42;;;;;;;21.80;8.80;;;;;;;9.46;68.91;99176.13;106175;1273;22546;-56
2022/04/24 06:59:13;;;;;;;16.50;7.70;;;;;;;9.54;68.24;99174.70;106176;1273;22567;-57
2022/04/24 07:01:46;;;;;;;16.20;7.00;;;;;;;9.62;68.14;99170.04;106099;1273;22551;-56
2022/04/24 07:04:18;;;;;;;22.40;7.70;;;;;;;9.70;67.73;99169.39;106134;1273;26235;-55
2022/04/24 07:06:50;;;;;;;15.10;6.60;;;;;;;9.78;67.35;99168.96;106153;1273;22657;-57
2022/04/24 07:09:23;;;;;;;22.60;9.30;;;;;;;9.84;67.30;99168.49;106027;1273;25419;-56
2022/04/24 07:11:55;;;;;;;29.70;13.50;;;;;;;9.91;67.44;99170.48;106144;1273;22688;-58
2022/04/24 07:14:27;;;;;;;34.30;13.80;;;;;;;9.98;67.16;99164.29;106199;1273;24250;-57
2022/04/24 07:16:59;;;;;;;19.40;7.70;;;;;;;10.05;66.90;99158.94;106232;1273;22552;-57
2022/04/24 07:19:32;;;;;;;19.60;6.60;;;;;;;10.12;66.69;99153.67;106072;1273;25377;-56
2022/04/24 07:22:04;;;;;;;20.40;7.20;;;;;;;10.21;66.40;99151.52;106205;1273;22541;-56
2022/04/24 07:24:37;;;;;;;16.60;6.70;;;;;;;10.27;66.45;99141.60;106103;1273;23221;-56
2022/04/24 07:27:08;;;;;;;14.50;5.60;;;;;;;10.34;66.13;99140.20;106138;1273;22633;-57
2022/04/24 07:29:40;;;;;;;21.40;7.10;;;;;;;10.41;66.02;99135.13;106081;1273;22544;-55
2022/04/24 07:32:17;;;;;;;18.30;6.80;;;;;;;10.48;66.14;99133.33;106085;1273;23655;-56
2022/04/24 07:34:49;;;;;;;26.50;8.70;;;;;;;10.57;65.88;99137.85;106078;1273;24368;-56
2022/04/24 07:37:21;;;;;;;22.60;9.80;;;;;;;10.66;65.84;99134.98;106036;1273;22715;-57
2022/04/24 07:39:52;;;;;;;21.10;9.10;;;;;;;10.72;65.52;99131.58;105969;1273;25509;-56
2022/04/24 07:42:24;;;;;;;20.80;9.70;;;;;;;10.78;65.36;99127.27;105942;1273;25045;-54
2022/04/24 07:44:56;;;;;;;18.60;8.90;;;;;;;10.83;65.20;99127.46;105881;1273;24304;-55
2022/04/24 07:47:28;;;;;;;17.60;7.70;;;;;;;10.88;65.27;99124.71;105771;1273;22537;-57
2022/04/24 07:50:00;;;;;;;18.80;8.10;;;;;;;10.93;64.89;99126.30;105806;1273;24355;-56
2022/04/24 07:52:32;;;;;;;22.50;8.40;;;;;;;10.96;64.78;99127.36;105941;1273;25418;-57
2022/04/24 07:55:05;;;;;;;20.20;8.90;;;;;;;11.00;64.43;99129.84;105846;1273;22619;-56
2022/04/24 07:57:37;;;;;;;21.60;9.70;;;;;;;11.04;64.60;99130.76;105758;1273;22577;-57
2022/04/24 08:00:11;;;;;;;21.30;8.90;;;;;;;11.08;64.31;99131.72;106033;1273;22533;-56
2022/04/24 08:02:53;;;;;;;26.10;12.00;;;;;;;11.15;64.24;99133.90;105838;1273;22541;-54
2022/04/24 08:05:26;;;;;;;20.70;9.90;;;;;;;11.20;64.20;99130.80;105962;1273;25374;-54
2022/04/24 08:07:59;;;;;;;20.40;8.90;;;;;;;11.26;63.76;99132.15;105852;1273;24353;-54
2022/04/24 08:10:32;;;;;;;26.60;9.70;;;;;;;11.33;63.92;99128.75;105952;1273;24147;-54
2022/04/24 08:13:05;;;;;;;20.50;9.60;;;;;;;11.41;63.56;99133.45;106011;1273;24856;-55
2022/04/24 08:15:38;;;;;;;19.60;8.70;;;;;;;11.49;63.14;99131.91;105900;1273;26629;-54
2022/04/24 08:18:10;;;;;;;24.10;9.80;;;;;;;11.56;63.19;99137.94;105804;1273;24488;-57
2022/04/24 08:20:43;;;;;;;23.80;9.70;;;;;;;11.63;62.99;99140.01;105899;1273;22546;-55
2022/04/24 08:23:17;;;;;;;23.70;8.40;;;;;;;11.70;62.82;99141.48;105751;1273;22797;-58
2022/04/24 08:25:50;;;;;;;17.70;7.60;;;;;;;11.75;62.58;99136.84;105783;1273;22554;-54
2022/04/24 08:28:25;;;;;;;19.50;8.10;;;;;;;11.79;61.76;99139.16;105738;1273;22591;-54
2022/04/24 08:30:57;;;;;;;21.80;7.40;;;;;;;11.84;61.71;99137.31;105685;1273;22553;-54
2022/04/24 08:33:30;;;;;;;19.50;7.90;;;;;;;11.89;61.66;99142.42;105765;1273;25371;-54
2022/04/24 08:36:01;;;;;;;18.70;8.30;;;;;;;11.93;61.54;99143.48;106225;1273;22740;-56
2022/04/24 08:38:33;;;;;;;23.20;9.70;;;;;;;11.97;61.68;99143.92;105957;1273;22572;-55
2022/04/24 08:41:04;;;;;;;21.20;9.80;;;;;;;12.01;61.63;99146.55;105867;1273;22531;-57
2022/04/24 08:43:37;;;;;;;23.90;9.40;;;;;;;12.04;60.96;99147.96;105822;1274;22583;-57
2022/04/24 08:46:09;;;;;;;21.50;9.60;;;;;;;12.04;60.56;99145.93;105682;1274;24252;-57
2022/04/24 08:48:45;;;;;;;25.10;11.40;;;;;;;12.02;60.41;99146.60;105915;1273;22586;-58
2022/04/24 08:51:18;;;;;;;22.80;10.20;;;;;;;12.02;60.55;99142.57;105894;1275;22853;-55
2022/04/24 08:53:51;;;;;;;46.40;25.80;;;;;;;12.03;60.63;99138.46;105901;1273;22543;-58
2022/04/24 08:56:24;;;;;;;55.80;27.50;;;;;;;12.04;60.58;99135.05;105960;1273;22612;-58
2022/04/24 08:58:56;;;;;;;48.10;27.90;;;;;;;12.03;60.03;99133.32;105960;1273;22543;-56
2022/04/24 09:01:27;;;;;;;41.90;23.20;;;;;;;12.02;59.93;99129.66;105986;1273;23000;-56
2022/04/24 09:03:59;;;;;;;40.30;21.50;;;;;;;12.02;60.08;99131.45;105947;1273;22579;-57
2022/04/24 09:06:30;;;;;;;30.50;13.50;;;;;;;12.03;59.76;99128.94;105991;1273;22535;-57
2022/04/24 09:09:08;;;;;;;32.10;16.50;;;;;;;12.05;59.77;99124.61;106043;1273;22620;-57
2022/04/24 09:11:40;;;;;;;30.80;13.70;;;;;;;12.08;59.89;99121.85;106215;1273;22555;-56
2022/04/24 09:14:19;;;;;;;25.00;9.90;;;;;;;12.10;59.55;99117.52;106012;1273;22569;-54
2022/04/24 09:16:53;;;;;;;23.80;8.80;;;;;;;12.12;59.46;99117.67;106024;1273;22562;-56
2022/04/24 09:19:26;;;;;;;18.60;8.50;;;;;;;12.11;59.37;99116.09;105908;1273;22698;-55
2022/04/24 09:22:06;;;;;;;27.70;12.10;;;;;;;12.12;59.38;99121.36;105968;1273;25739;-56
2022/04/24 09:24:52;;;;;;;27.30;11.10;;;;;;;12.14;59.34;99123.77;106143;1273;24239;-57
2022/04/24 09:27:28;;;;;;;27.20;10.50;;;;;;;12.18;59.35;99121.75;105925;1273;23363;-54
2022/04/24 09:30:02;;;;;;;23.90;10.50;;;;;;;12.23;59.39;99116.48;105966;1273;22700;-58
2022/04/24 09:32:39;;;;;;;24.20;10.00;;;;;;;12.30;59.11;99111.52;106113;1273;22573;-54
2022/04/24 09:35:11;;;;;;;25.10;10.50;;;;;;;12.38;58.93;99101.39;106237;1273;25365;-57
2022/04/24 09:37:43;;;;;;;26.40;10.80;;;;;;;12.49;59.08;99100.03;106182;1273;24243;-58
2022/04/24 09:40:14;;;;;;;26.10;10.40;;;;;;;12.60;58.80;99098.84;106095;1273;23979;-58
2022/04/24 09:42:56;;;;;;;30.40;12.10;;;;;;;12.67;58.39;99095.17;106172;1273;22558;-58
2022/04/24 09:45:28;;;;;;;25.00;9.70;;;;;;;12.76;58.18;99087.15;105950;1274;25050;-57
2022/04/24 09:48:03;;;;;;;34.20;14.90;;;;;;;12.86;57.95;99082.44;105969;1274;24104;-58
2022/04/24 09:50:35;;;;;;;24.20;10.40;;;;;;;12.96;57.40;99081.84;106208;1273;25327;-57
2022/04/24 09:53:08;;;;;;;36.90;16.10;;;;;;;13.07;57.72;99078.30;106073;1273;24762;-56
2022/04/24 09:55:41;;;;;;;22.40;10.50;;;;;;;13.16;56.77;99072.09;106074;1273;22541;-57
2022/04/24 09:58:14;;;;;;;26.10;11.40;;;;;;;13.21;56.44;99072.30;106068;1273;24215;-57
2022/04/24 10:00:46;;;;;;;21.70;9.80;;;;;;;13.27;56.12;99067.85;106169;1273;22551;-55
2022/04/24 10:03:20;;;;;;;27.60;11.00;;;;;;;13.31;56.11;99063.67;106391;1273;22752;-58
2022/04/24 10:05:52;;;;;;;21.00;9.40;;;;;;;13.40;56.56;99062.01;106089;1273;23887;-55
2022/04/24 10:08:24;;;;;;;22.60;9.60;;;;;;;13.49;55.95;99061.75;106168;1273;23330;-57
2022/04/24 10:10:55;;;;;;;30.30;13.90;;;;;;;13.54;55.25;99058.79;105993;1273;22587;-56
2022/04/24 10:13:28;;;;;;;22.10;11.20;;;;;;;13.57;55.38;99057.27;105909;1274;22606;-56
2022/04/24 10:16:12;;;;;;;22.50;11.40;;;;;;;13.60;54.76;99050.40;105882;1274;24249;-58
2022/04/24 10:18:53;;;;;;;31.50;14.30;;;;;;;13.62;55.12;99041.55;105845;1274;22618;-55
2022/04/24 10:21:39;;;;;;;32.80;19.10;;;;;;;13.70;54.84;99038.84;105878;1274;22903;-54
2022/04/24 10:24:12;;;;;;;32.10;15.20;;;;;;;13.75;54.52;99032.97;105908;1275;23992;-54
2022/04/24 10:26:54;;;;;;;32.70;20.70;;;;;;;13.79;54.23;99026.84;106140;1273;25382;-54
2022/04/24 10:29:26;;;;;;;19.50;10.90;;;;;;;13.84;53.85;99017.36;106008;1273;22535;-55
2022/04/24 10:31:59;;;;;;;23.70;9.20;;;;;;;13.89;54.16;99013.45;105944;1273;22709;-54
2022/04/24 10:34:41;;;;;;;17.90;7.70;;;;;;;13.97;54.14;99011.41;105912;1273;22554;-56
2022/04/24 10:37:13;;;;;;;20.60;8.80;;;;;;;14.02;53.72;99008.02;105946;1273;25414;-56
2022/04/24 10:39:54;;;;;;;19.30;8.80;;;;;;;14.04;53.93;99007.88;105811;1273;25272;-54
2022/04/24 10:42:34;;;;;;;19.00;8.50;;;;;;;14.09;53.92;99006.33;105820;1274;25380;-55
2022/04/24 10:45:14;;;;;;;19.10;8.60;;;;;;;14.12;53.59;99013.33;101211;1274;6296215;-55
2022/04/24 10:47:55;;;;;;;20.50;9.10;;;;;;;14.10;53.48;99007.69;105845;1273;23949;-55
2022/04/24 10:50:27;;;;;;;18.60;8.30;;;;;;;14.05;53.43;99006.59;105978;1274;22884;-55
2022/04/24 10:53:12;;;;;;;16.30;7.40;;;;;;;14.02;53.36;99010.45;105896;1273;22565;-54
2022/04/24 10:55:44;;;;;;;18.90;7.50;;;;;;;14.01;53.52;99001.72;106068;1273;25754;-57
2022/04/24 10:58:27;;;;;;;18.60;8.40;;;;;;;13.98;53.31;98996.35;105862;1274;22998;-57
2022/04/24 11:01:12;;;;;;;17.30;7.60;;;;;;;13.94;53.06;98997.05;105870;1274;22527;-56
2022/04/24 11:03:45;;;;;;;15.10;7.20;;;;;;;13.90;53.18;98991.15;106197;1273;25480;-57
2022/04/24 11:06:27;;;;;;;15.50;7.30;;;;;;;13.89;53.07;98992.39;106578;1273;22582;-56
2022/04/24 11:09:09;;;;;;;20.30;9.00;;;;;;;13.87;53.08;98990.63;105835;1274;24237;-55
2022/04/24 11:11:50;;;;;;;16.80;8.10;;;;;;;13.87;52.84;98989.32;105831;1274;24787;-55
2022/04/24 11:14:25;;;;;;;18.60;7.90;;;;;;;13.84;52.88;98991.80;106152;1273;22551;-57
2022/04/24 11:16:58;;;;;;;17.00;7.00;;;;;;;13.80;52.61;98993.34;105904;1273;23953;-55
2022/04/24 11:19:31;;;;;;;15.30;6.50;;;;;;;13.78;53.00;98994.13;106030;1273;22657;-59
2022/04/24 11:22:04;;;;;;;18.50;7.90;;;;;;;13.77;53.34;98990.00;105963;1273;26523;-56
2022/04/24 11:24:38;;;;;;;18.00;7.10;;;;;;;13.76;53.05;98984.85;105926;1273;25276;-53
2022/04/24 11:27:12;;;;;;;13.90;5.50;;;;;;;13.75;52.84;98982.08;105939;1273;25559;-55
2022/04/24 11:29:47;;;;;;;16.70;6.00;;;;;;;13.73;52.63;98978.33;106505;1273;24860;-58
2022/04/24 11:32:21;;;;;;;14.10;6.10;;;;;;;13.71;52.40;98982.17;105944;1274;22557;-57
2022/04/24 11:34:52;;;;;;;18.50;6.80;;;;;;;13.70;53.01;98981.08;106075;1274;22876;-57
2022/04/24 11:37:26;;;;;;;15.70;6.50;;;;;;;13.70;52.97;98976.89;105893;1274;22556;-57
2022/04/24 11:40:03;;;;;;;14.80;5.80;;;;;;;13.67;53.02;98972.34;105857;1274;22560;-55
2022/04/24 11:42:35;;;;;;;14.00;5.40;;;;;;;13.66;53.70;98972.56;105925;1273;22541;-55